createdAt,value
2023-04-02T00:00:53.120Z,15.80784
2023-04-02T00:05:54.369Z,15.10027
2023-04-02T00:10:55.656Z,16.13161
2023-04-02T00:15:57.035Z,15.84403
2023-04-02T00:20:58.325Z,15.695742
2023-04-02T00:25:59.725Z,15.721334
2023-04-02T00:31:00.975Z,15.68524
2023-04-02T00:36:02.481Z,15.457936
2023-04-02T00:41:04.095Z,15.087474
2023-04-02T00:46:05.453Z,15.279198
2023-04-02T00:51:06.860Z,15.060728
2023-04-02T00:56:08.210Z,15.150762
2023-04-02T01:01:09.538Z,15.390862
2023-04-02T01:06:11.223Z,15.43385
2023-04-02T01:11:12.609Z,15.994884
2023-04-02T01:16:13.935Z,15.850734
2023-04-02T01:21:15.400Z,15.408068
2023-04-02T01:26:17.037Z,15.517086
2023-04-02T01:31:18.438Z,15.152974
2023-04-02T01:36:19.818Z,14.330306
2023-04-02T01:41:21.254Z,14.652312
2023-04-02T01:46:22.835Z,14.545152
2023-04-02T01:51:24.157Z,14.307008
2023-04-02T01:56:25.683Z,14.492368
2023-04-02T02:01:26.907Z,14.86222
2023-04-02T02:06:28.156Z,14.270818
2023-04-02T02:11:29.753Z,14.559198
2023-04-02T02:16:31.129Z,14.716754
2023-04-02T02:21:32.385Z,15.107164
2023-04-02T02:26:33.779Z,14.688502
2023-04-02T02:31:35.212Z,14.992582
2023-04-02T02:36:36.768Z,14.743934
2023-04-02T02:41:38.096Z,14.860632
2023-04-02T02:46:39.399Z,14.624956
2023-04-02T02:51:40.746Z,14.717636
2023-04-02T02:56:42.022Z,14.647292
2023-04-02T03:01:43.447Z,14.656994
2023-04-02T03:06:44.878Z,14.214776
2023-04-02T03:11:46.215Z,14.133738
2023-04-02T03:16:47.451Z,14.00001
2023-04-02T03:21:48.932Z,12.793774
2023-04-02T03:26:50.640Z,13.851384
2023-04-02T03:31:51.919Z,13.412694
2023-04-02T03:36:53.356Z,13.370316
2023-04-02T03:41:54.870Z,13.8768
2023-04-02T03:46:56.135Z,13.380304
2023-04-02T03:51:57.501Z,13.339704
2023-04-02T03:56:58.866Z,13.411812
2023-04-02T04:02:00.291Z,13.894902
2023-04-02T04:07:01.633Z,13.862688
2023-04-02T04:12:03.143Z,13.321058
2023-04-02T04:17:04.516Z,12.766742
2023-04-02T04:22:05.928Z,13.491696
2023-04-02T04:27:07.327Z,13.903288
2023-04-02T04:32:08.592Z,13.118926
2023-04-02T04:37:09.970Z,13.098192
2023-04-02T04:42:11.436Z,14.253612
2023-04-02T04:47:12.691Z,14.275242
2023-04-02T04:52:13.995Z,14.028086
2023-04-02T04:57:15.520Z,14.596704
2023-04-02T05:02:16.800Z,14.785334
2023-04-02T05:07:18.248Z,14.927448
2023-04-02T05:12:19.839Z,15.301262
2023-04-02T05:17:21.300Z,14.95745
2023-04-02T05:22:22.785Z,15.112632
2023-04-02T05:27:24.199Z,15.347168
2023-04-02T05:32:25.574Z,15.43111
2023-04-02T05:37:27.060Z,15.641546
2023-04-02T05:42:28.634Z,16.065228
2023-04-02T05:47:30.080Z,15.762464
2023-04-02T05:52:31.575Z,16.623276
2023-04-02T05:57:44.503Z,16.446654
2023-04-02T06:02:51.015Z,15.823554
2023-04-02T06:07:52.299Z,16.411252
2023-04-02T06:12:53.988Z,17.268346
2023-04-02T06:17:55.242Z,16.809708
2023-04-02T06:22:56.762Z,18.32285
2023-04-02T06:27:58.257Z,18.99875
2023-04-02T06:32:59.669Z,17.70249
2023-04-02T06:38:01.027Z,18.75865
2023-04-02T06:43:02.528Z,19.118284
2023-04-02T06:48:04.036Z,20.258332
2023-04-02T06:53:05.355Z,20.337782
2023-04-02T06:58:06.986Z,20.095036
2023-04-02T07:03:08.273Z,19.976492
2023-04-02T07:08:09.570Z,21.225314
2023-04-02T07:13:11.042Z,21.157778
2023-04-02T07:18:12.291Z,21.474682
2023-04-02T07:23:15.266Z,22.687532
2023-04-02T07:28:19.159Z,22.658588
2023-04-02T07:33:21.146Z,22.220548
2023-04-02T07:38:22.511Z,21.9984
2023-04-02T07:43:23.806Z,22.876882
2023-04-02T07:48:25.043Z,22.299428
2023-04-02T07:53:26.378Z,23.03931
2023-04-02T07:58:27.867Z,21.887998
2023-04-02T08:03:29.463Z,22.158874
2023-04-02T08:08:31.046Z,23.253818
2023-04-02T08:13:32.705Z,23.751198
2023-04-02T08:18:33.993Z,25.202236
2023-04-02T08:23:35.408Z,24.42387
2023-04-02T08:28:36.895Z,24.431374
2023-04-02T08:33:38.375Z,25.1477
2023-04-02T08:38:39.719Z,23.787348
2023-04-02T08:43:41.132Z,23.772638
2023-04-02T08:48:42.789Z,23.504272
2023-04-02T08:53:44.098Z,25.01754
2023-04-02T08:58:45.392Z,24.114904
2023-04-02T09:03:46.764Z,25.059036
2023-04-02T09:08:48.072Z,22.977962
2023-04-02T09:13:49.352Z,22.698808
2023-04-02T09:18:50.601Z,24.615188
2023-04-02T09:23:51.879Z,25.611848
2023-04-02T09:28:53.725Z,24.203188
2023-04-02T09:33:55.098Z,24.981784
2023-04-02T09:38:56.443Z,24.709008
2023-04-02T09:43:57.742Z,25.996506
2023-04-02T09:48:59.089Z,26.088278
2023-04-02T09:54:00.448Z,26.45311
2023-04-02T09:59:01.768Z,26.531922
2023-04-02T10:04:03.123Z,27.060202
2023-04-02T10:09:04.511Z,26.190036
2023-04-02T10:14:05.770Z,26.920108
2023-04-02T10:19:07.005Z,24.68385
2023-04-02T10:24:08.267Z,25.4452
2023-04-02T10:29:09.944Z,25.084194
2023-04-02T10:34:11.500Z,24.622448
2023-04-02T10:39:12.770Z,25.073108
2023-04-02T10:44:20.300Z,27.367444
2023-04-02T10:49:22.184Z,27.442728
2023-04-02T10:54:23.506Z,26.602986
2023-04-02T10:59:24.808Z,27.044338
2023-04-02T11:04:26.125Z,26.16131
2023-04-02T11:09:27.410Z,25.253692
2023-04-02T11:14:28.767Z,25.982828
2023-04-02T11:19:30.335Z,26.479828
2023-04-02T11:24:31.861Z,27.164402
2023-04-02T11:29:33.336Z,25.618918
2023-04-02T11:34:34.870Z,26.963368
2023-04-02T11:39:36.137Z,27.503602
2023-04-02T11:44:37.625Z,27.483098
2023-04-02T11:49:38.877Z,26.776894
2023-04-02T11:54:40.200Z,27.366128
2023-04-02T11:59:41.811Z,27.637752
2023-04-02T12:04:43.094Z,27.152514
2023-04-02T12:09:44.908Z,26.86625
2023-04-02T12:14:46.234Z,27.560106
2023-04-02T12:19:47.771Z,28.060852
2023-04-02T12:24:49.212Z,27.4376
2023-04-02T12:29:50.857Z,26.72039
2023-04-02T12:34:52.108Z,27.515082
2023-04-02T12:39:53.704Z,27.76821
2023-04-02T12:44:54.967Z,28.064394
2023-04-02T12:49:56.240Z,27.53009
2023-04-02T12:54:57.586Z,27.244096
2023-04-02T12:59:58.974Z,27.086716
2023-04-02T13:05:00.418Z,26.504064
2023-04-02T13:10:01.856Z,27.635376
2023-04-02T13:15:03.649Z,26.9181
2023-04-02T13:20:05.188Z,26.518678
2023-04-02T13:25:06.627Z,26.319124
2023-04-02T13:30:08.195Z,25.876646
2023-04-02T13:35:09.573Z,26.242116
2023-04-02T13:40:10.886Z,25.962962
2023-04-02T13:45:12.381Z,25.475664
2023-04-02T13:50:13.759Z,26.2944
2023-04-02T13:55:15.115Z,25.164242
2023-04-02T14:00:16.411Z,25.132014
2023-04-02T14:05:17.888Z,25.471688
2023-04-02T14:10:19.968Z,25.157456
2023-04-02T14:15:21.533Z,24.983956
2023-04-02T14:20:23.096Z,25.152558
2023-04-02T14:25:24.683Z,25.096666
2023-04-02T14:30:26.087Z,24.422894
2023-04-02T14:35:27.597Z,23.955122
2023-04-02T14:40:29.098Z,21.982022
2023-04-02T14:45:30.592Z,20.038166
2023-04-02T14:50:31.824Z,20.499138
2023-04-02T14:55:33.181Z,19.896852
2023-04-02T15:00:34.915Z,19.91319
2023-04-02T15:05:36.880Z,19.420248
2023-04-02T15:10:38.358Z,17.914678
2023-04-02T15:15:41.104Z,18.389056
2023-04-02T15:20:42.518Z,18.377508
2023-04-02T15:25:43.872Z,15.89717
2023-04-02T15:30:45.388Z,15.98597
2023-04-02T15:35:46.927Z,15.985874
2023-04-02T15:40:48.251Z,16.97044
2023-04-02T15:45:49.906Z,16.803792
2023-04-02T15:50:51.295Z,16.765308
2023-04-02T15:55:52.512Z,17.13843
2023-04-02T16:00:53.843Z,17.463896
2023-04-02T16:05:55.238Z,17.73522
2023-04-02T16:10:56.681Z,16.972746
2023-04-02T16:15:58.197Z,16.90787
2023-04-02T16:20:59.584Z,17.365286
2023-04-02T16:26:00.815Z,17.318946
2023-04-02T16:31:02.219Z,17.004336
2023-04-02T16:36:03.557Z,16.854202
2023-04-02T16:41:08.898Z,17.13269
2023-04-02T16:46:10.648Z,17.538122
2023-04-02T16:51:11.915Z,17.42928
2023-04-02T16:56:13.231Z,16.746596
2023-04-02T17:01:14.755Z,17.320968
2023-04-02T17:06:16.048Z,17.626392
2023-04-02T17:11:17.281Z,17.76092
2023-04-02T17:16:18.603Z,17.730728
2023-04-02T17:21:20.159Z,17.001174
2023-04-02T17:26:21.540Z,17.9378
2023-04-02T17:31:22.954Z,17.033836
2023-04-02T17:36:24.230Z,16.588062
2023-04-02T17:41:25.707Z,16.422718
2023-04-02T17:46:27.720Z,15.929736
2023-04-02T17:51:29.062Z,16.894532
2023-04-02T17:56:30.434Z,15.471004
2023-04-02T18:01:32.228Z,15.709598
2023-04-02T18:06:33.869Z,15.875458
2023-04-02T18:11:35.260Z,16.484514
2023-04-02T18:16:36.841Z,15.915176
2023-04-02T18:21:38.350Z,15.748
2023-04-02T18:26:39.606Z,15.910494
2023-04-02T18:31:40.921Z,16.092068
2023-04-02T18:36:42.594Z,16.179456
2023-04-02T18:41:43.888Z,16.161802
2023-04-02T18:46:45.666Z,16.547096
2023-04-02T18:51:46.955Z,17.026414
2023-04-02T18:56:48.458Z,16.555482
2023-04-02T19:01:49.852Z,16.984036
2023-04-02T19:06:51.083Z,16.378508
2023-04-02T19:11:52.566Z,16.442502
2023-04-02T19:16:53.988Z,16.806614
2023-04-02T19:21:55.256Z,17.203836
2023-04-02T19:26:56.621Z,16.641106
2023-04-02T19:31:58.101Z,17.196848
2023-04-02T19:36:59.437Z,17.333764
2023-04-02T19:42:00.728Z,16.97565
2023-04-02T19:47:02.194Z,16.792854
2023-04-02T19:52:03.577Z,16.63979
2023-04-02T19:57:05.406Z,15.985438
2023-04-02T20:02:07.001Z,16.749676
2023-04-02T20:07:08.287Z,16.114838
2023-04-02T20:12:09.903Z,16.770424
2023-04-02T20:17:11.268Z,17.093854
2023-04-02T20:22:12.746Z,16.86267
2023-04-02T20:27:14.471Z,17.142922
2023-04-02T20:32:15.869Z,16.729024
2023-04-02T20:37:17.135Z,16.16092
2023-04-02T20:42:18.507Z,16.557342
2023-04-02T20:47:19.880Z,16.194898
2023-04-02T20:52:21.293Z,16.619572
2023-04-02T20:57:22.558Z,16.603682
2023-04-02T21:02:24.241Z,16.269314
2023-04-02T21:07:25.552Z,15.737224
2023-04-02T21:12:26.912Z,16.064522
2023-04-02T21:17:28.550Z,15.799278
2023-04-02T21:22:29.795Z,15.700858
2023-04-02T21:27:31.070Z,15.873422
2023-04-02T21:32:32.677Z,15.039898
2023-04-02T21:37:34.398Z,15.768122
2023-04-02T21:42:35.958Z,15.439318
2023-04-02T21:47:37.304Z,16.103982
2023-04-02T21:52:38.925Z,15.750998
2023-04-02T21:57:40.429Z,15.775098
2023-04-02T22:02:42.467Z,15.391648
2023-04-02T22:07:43.778Z,15.667138
2023-04-02T22:12:45.317Z,15.122076
2023-04-02T22:17:46.836Z,15.480014
2023-04-02T22:22:48.308Z,15.97343
2023-04-02T22:27:49.629Z,15.800432
2023-04-02T22:32:51.078Z,16.14883
2023-04-02T22:37:52.437Z,15.300122
2023-04-02T22:42:53.806Z,15.635806
2023-04-02T22:47:55.221Z,15.638628
2023-04-02T22:52:56.568Z,15.561662
2023-04-02T22:57:58.030Z,15.5704
2023-04-02T23:02:59.460Z,15.135754
2023-04-02T23:08:00.888Z,15.336136
2023-04-02T23:13:02.248Z,14.575602
2023-04-02T23:18:04.248Z,14.204274
2023-04-02T23:23:05.529Z,14.556296
2023-04-02T23:28:06.946Z,14.339156
2023-04-02T23:33:08.356Z,14.022986
2023-04-02T23:38:09.693Z,13.575476
2023-04-02T23:43:10.994Z,13.797188
2023-04-02T23:48:13.070Z,13.366112
2023-04-02T23:53:14.360Z,13.30619
2023-04-02T23:58:15.619Z,12.748412
